sensor_id;sensor_type;location;lat;lon;timestamp;pressure;altitude;pressure_sealevel;temperature;humidity
86706;BME280;77456;48.826;2.324;2024-03-23T00:55:51;100876.56;;;11.18;67.58
86706;BME280;77456;48.826;2.324;2024-03-23T00:58:17;100886.16;;;11.18;67.68
86706;BME280;77456;48.826;2.324;2024-03-23T01:00:45;100887.03;;;11.17;67.90
86706;BME280;77456;48.826;2.324;2024-03-23T01:03:11;100887.03;;;11.17;68.12
86706;BME280;77456;48.826;2.324;2024-03-23T01:05:36;100885.22;;;11.19;68.10
86706;BME280;77456;48.826;2.324;2024-03-23T01:08:01;100885.22;;;11.19;67.76
86706;BME280;77456;48.826;2.324;2024-03-23T01:10:27;100886.16;;;11.18;67.87
86706;BME280;77456;48.826;2.324;2024-03-23T01:12:52;100881.06;;;11.15;67.78
86706;BME280;77456;48.826;2.324;2024-03-23T01:15:18;100881.91;;;11.15;67.59
86706;BME280;77456;48.826;2.324;2024-03-23T01:17:43;100884.63;;;11.12;67.78
86706;BME280;77456;48.826;2.324;2024-03-23T01:20:09;100886.38;;;11.12;67.64
86706;BME280;77456;48.826;2.324;2024-03-23T01:22:34;100885.53;;;11.11;68.26
86706;BME280;77456;48.826;2.324;2024-03-23T01:25:06;100878.63;;;11.10;68.00
86706;BME280;77456;48.826;2.324;2024-03-23T01:27:32;100891.66;;;11.10;67.67
86706;BME280;77456;48.826;2.324;2024-03-23T01:29:59;100889.94;;;11.09;67.88
86706;BME280;77456;48.826;2.324;2024-03-23T01:32:24;100886.50;;;11.09;68.07
86706;BME280;77456;48.826;2.324;2024-03-23T01:34:50;100882.91;;;11.11;67.67
86706;BME280;77456;48.826;2.324;2024-03-23T01:37:18;100881.28;;;11.09;67.71
86706;BME280;77456;48.826;2.324;2024-03-23T01:39:46;100879.78;;;11.03;68.07
86706;BME280;77456;48.826;2.324;2024-03-23T01:42:12;100885.75;;;11.07;67.98
86706;BME280;77456;48.826;2.324;2024-03-23T01:44:38;100886.50;;;11.09;68.07
86706;BME280;77456;48.826;2.324;2024-03-23T01:47:03;100891.72;;;11.09;68.13
86706;BME280;77456;48.826;2.324;2024-03-23T01:49:28;100881.41;;;11.06;68.07
86706;BME280;77456;48.826;2.324;2024-03-23T01:51:54;100883.00;;;11.10;67.73
86706;BME280;77456;48.826;2.324;2024-03-23T01:54:20;100884.69;;;11.11;67.74
86706;BME280;77456;48.826;2.324;2024-03-23T01:56:45;100887.28;;;11.11;67.43
86706;BME280;77456;48.826;2.324;2024-03-23T01:59:11;100900.34;;;11.11;67.79
86706;BME280;77456;48.826;2.324;2024-03-23T02:01:38;100894.09;;;11.15;67.92
86706;BME280;77456;48.826;2.324;2024-03-23T02:04:03;100891.50;;;11.15;67.60
86706;BME280;77456;48.826;2.324;2024-03-23T02:06:28;100890.63;;;11.14;67.46
86706;BME280;77456;48.826;2.324;2024-03-23T02:08:54;100887.25;;;11.12;67.35
86706;BME280;77456;48.826;2.324;2024-03-23T02:11:20;100883.72;;;11.13;67.28
86706;BME280;77456;48.826;2.324;2024-03-23T02:13:45;100892.38;;;11.14;66.88
86706;BME280;77456;48.826;2.324;2024-03-23T02:16:11;100899.53;;;11.09;66.78
86706;BME280;77456;48.826;2.324;2024-03-23T02:18:37;100895.38;;;11.04;66.39
86706;BME280;77456;48.826;2.324;2024-03-23T02:21:02;100901.59;;;11.00;66.47
86706;BME280;77456;48.826;2.324;2024-03-23T02:23:28;100899.16;;;10.96;66.64
86706;BME280;77456;48.826;2.324;2024-03-23T02:25:53;100904.47;;;10.94;66.66
86706;BME280;77456;48.826;2.324;2024-03-23T02:28:19;100910.59;;;10.93;66.71
86706;BME280;77456;48.826;2.324;2024-03-23T02:30:45;100903.63;;;10.94;66.17
86706;BME280;77456;48.826;2.324;2024-03-23T02:33:11;100896.09;;;10.86;66.76
86706;BME280;77456;48.826;2.324;2024-03-23T02:35:36;100920.50;;;10.84;66.46
86706;BME280;77456;48.826;2.324;2024-03-23T02:38:02;100909.25;;;10.83;65.96
86706;BME280;77456;48.826;2.324;2024-03-23T02:40:28;100921.53;;;10.79;65.83
86706;BME280;77456;48.826;2.324;2024-03-23T02:42:54;100923.44;;;10.74;65.82
86706;BME280;77456;48.826;2.324;2024-03-23T02:45:19;100919.19;;;10.72;66.19
86706;BME280;77456;48.826;2.324;2024-03-23T02:47:44;100910.50;;;10.73;66.42
86706;BME280;77456;48.826;2.324;2024-03-23T02:50:10;100921.94;;;10.69;66.73
86706;BME280;77456;48.826;2.324;2024-03-23T02:52:36;100923.69;;;10.68;66.35
86706;BME280;77456;48.826;2.324;2024-03-23T02:55:02;100930.78;;;10.65;66.24
86706;BME280;77456;48.826;2.324;2024-03-23T02:57:28;100922.28;;;10.59;65.95
86706;BME280;77456;48.826;2.324;2024-03-23T02:59:53;100928.50;;;10.55;66.23
86706;BME280;77456;48.826;2.324;2024-03-23T03:02:20;100926.69;;;10.57;65.71
86706;BME280;77456;48.826;2.324;2024-03-23T03:04:46;100933.81;;;10.52;65.84
86706;BME280;77456;48.826;2.324;2024-03-23T03:07:11;100922.69;;;10.49;65.53
86706;BME280;77456;48.826;2.324;2024-03-23T03:09:36;100932.31;;;10.47;65.61
86706;BME280;77456;48.826;2.324;2024-03-23T03:12:06;100935.88;;;10.44;65.67
86706;BME280;77456;48.826;2.324;2024-03-23T03:14:32;100941.03;;;10.46;64.97
86706;BME280;77456;48.826;2.324;2024-03-23T03:16:58;100929.94;;;10.41;64.42
86706;BME280;77456;48.826;2.324;2024-03-23T03:19:23;100944.91;;;10.34;64.33
86706;BME280;77456;48.826;2.324;2024-03-23T03:21:48;100942.53;;;10.28;64.60
86706;BME280;77456;48.826;2.324;2024-03-23T03:24:14;100949.59;;;10.24;64.45
86706;BME280;77456;48.826;2.324;2024-03-23T03:26:39;100952.38;;;10.18;64.89
86706;BME280;77456;48.826;2.324;2024-03-23T03:29:05;100949.84;;;10.16;64.27
86706;BME280;77456;48.826;2.324;2024-03-23T03:31:30;100948.13;;;10.15;64.26
86706;BME280;77456;48.826;2.324;2024-03-23T03:33:56;100946.66;;;10.08;64.53
86706;BME280;77456;48.826;2.324;2024-03-23T03:36:21;100944.25;;;10.02;64.37
86706;BME280;77456;48.826;2.324;2024-03-23T03:38:46;100944.41;;;9.98;64.71
86706;BME280;77456;48.826;2.324;2024-03-23T03:41:12;100948.81;;;9.96;64.56
86706;BME280;77456;48.826;2.324;2024-03-23T03:43:37;100949.06;;;9.88;65.06
86706;BME280;77456;48.826;2.324;2024-03-23T03:46:03;100952.41;;;9.91;64.67
86706;BME280;77456;48.826;2.324;2024-03-23T03:48:29;100960.28;;;9.90;64.68
86706;BME280;77456;48.826;2.324;2024-03-23T03:50:54;100963.88;;;9.86;64.78
86706;BME280;77456;48.826;2.324;2024-03-23T03:53:20;100976.06;;;9.85;64.78
86706;BME280;77456;48.826;2.324;2024-03-23T03:55:46;100972.72;;;9.82;64.96
86706;BME280;77456;48.826;2.324;2024-03-23T03:58:11;100979.63;;;9.83;64.92
86706;BME280;77456;48.826;2.324;2024-03-23T04:00:37;100978.78;;;9.82;65.08
86706;BME280;77456;48.826;2.324;2024-03-23T04:03:02;100986.53;;;9.84;64.89
86706;BME280;77456;48.826;2.324;2024-03-23T04:05:28;100983.97;;;9.82;64.69
86706;BME280;77456;48.826;2.324;2024-03-23T04:07:53;100976.31;;;9.78;64.86
86706;BME280;77456;48.826;2.324;2024-03-23T04:10:19;100980.63;;;9.79;64.52
86706;BME280;77456;48.826;2.324;2024-03-23T04:12:44;100979.84;;;9.75;64.64
86706;BME280;77456;48.826;2.324;2024-03-23T04:15:11;100978.97;;;9.76;64.41
86706;BME280;77456;48.826;2.324;2024-03-23T04:17:36;100977.44;;;9.70;64.60
86706;BME280;77456;48.826;2.324;2024-03-23T04:20:02;100978.31;;;9.69;64.91
86706;BME280;77456;48.826;2.324;2024-03-23T04:22:30;100981.81;;;9.68;64.49
86706;BME280;77456;48.826;2.324;2024-03-23T04:24:56;100973.22;;;9.66;64.26
86706;BME280;77456;48.826;2.324;2024-03-23T04:27:22;100982.78;;;9.66;64.54
86706;BME280;77456;48.826;2.324;2024-03-23T04:29:51;100972.50;;;9.61;64.69
86706;BME280;77456;48.826;2.324;2024-03-23T04:32:17;100978.72;;;9.57;65.00
86706;BME280;77456;48.826;2.324;2024-03-23T04:34:43;100983.16;;;9.54;64.61
86706;BME280;77456;48.826;2.324;2024-03-23T04:37:09;100991.06;;;9.50;64.84
86706;BME280;77456;48.826;2.324;2024-03-23T04:39:38;101000.00;;;9.42;64.47
86706;BME280;77456;48.826;2.324;2024-03-23T04:42:04;100990.66;;;9.36;65.08
86706;BME280;77456;48.826;2.324;2024-03-23T04:44:30;100985.56;;;9.32;65.30
86706;BME280;77456;48.826;2.324;2024-03-23T04:46:56;100996.00;;;9.30;65.29
86706;BME280;77456;48.826;2.324;2024-03-23T04:49:21;101001.22;;;9.30;65.08
86706;BME280;77456;48.826;2.324;2024-03-23T04:51:47;101001.38;;;9.25;65.03
86706;BME280;77456;48.826;2.324;2024-03-23T04:54:12;101009.34;;;9.19;65.32
86706;BME280;77456;48.826;2.324;2024-03-23T04:56:38;101012.00;;;9.18;65.40
86706;BME280;77456;48.826;2.324;2024-03-23T04:59:03;101006.94;;;9.13;65.49
86706;BME280;77456;48.826;2.324;2024-03-23T05:01:31;101015.66;;;9.11;65.23
86706;BME280;77456;48.826;2.324;2024-03-23T05:03:57;101013.13;;;9.09;65.50
86706;BME280;77456;48.826;2.324;2024-03-23T05:06:23;101022.72;;;9.07;65.38
86706;BME280;77456;48.826;2.324;2024-03-23T05:08:48;101014.16;;;9.03;65.25
86706;BME280;77456;48.826;2.324;2024-03-23T05:11:14;101024.72;;;8.97;65.49
86706;BME280;77456;48.826;2.324;2024-03-23T05:13:41;101023.97;;;8.94;65.75
86706;BME280;77456;48.826;2.324;2024-03-23T05:16:06;101024.81;;;8.94;65.47
86706;BME280;77456;48.826;2.324;2024-03-23T05:18:32;101032.72;;;8.90;65.33
86706;BME280;77456;48.826;2.324;2024-03-23T05:20:58;101031.06;;;8.87;65.52
86706;BME280;77456;48.826;2.324;2024-03-23T05:23:28;101029.34;;;8.88;65.67
86706;BME280;77456;48.826;2.324;2024-03-23T05:25:53;101045.81;;;8.87;65.32
86706;BME280;77456;48.826;2.324;2024-03-23T05:28:20;101043.31;;;8.83;65.31
86706;BME280;77456;48.826;2.324;2024-03-23T05:30:55;101038.28;;;8.77;65.40
86706;BME280;77456;48.826;2.324;2024-03-23T05:33:22;101034.78;;;8.78;65.02
86706;BME280;77456;48.826;2.324;2024-03-23T05:35:59;101041.75;;;8.76;64.72
86706;BME280;77456;48.826;2.324;2024-03-23T05:38:25;101039.22;;;8.75;64.96
86706;BME280;77456;48.826;2.324;2024-03-23T05:40:57;101047.13;;;8.70;65.20
86706;BME280;77456;48.826;2.324;2024-03-23T05:43:23;101047.91;;;8.74;64.96
86706;BME280;77456;48.826;2.324;2024-03-23T05:45:59;101047.97;;;8.72;64.90
86706;BME280;77456;48.826;2.324;2024-03-23T05:48:25;101048.78;;;8.74;64.54
86706;BME280;77456;48.826;2.324;2024-03-23T05:50:52;101049.75;;;8.70;64.59
86706;BME280;77456;48.826;2.324;2024-03-23T05:53:18;101057.53;;;8.70;64.58
86706;BME280;77456;48.826;2.324;2024-03-23T05:55:46;101055.94;;;8.66;64.78
86706;BME280;77456;48.826;2.324;2024-03-23T05:58:15;101060.25;;;8.66;64.68
86706;BME280;77456;48.826;2.324;2024-03-23T06:00:42;101075.06;;;8.64;65.08
86706;BME280;77456;48.826;2.324;2024-03-23T06:03:07;101073.31;;;8.64;64.70
86706;BME280;77456;48.826;2.324;2024-03-23T06:05:33;101074.22;;;8.61;64.49
86706;BME280;77456;48.826;2.324;2024-03-23T06:07:58;101063.88;;;8.60;64.87
86706;BME280;77456;48.826;2.324;2024-03-23T06:10:23;101064.78;;;8.57;64.79
86706;BME280;77456;48.826;2.324;2024-03-23T06:12:49;101068.31;;;8.56;64.86
86706;BME280;77456;48.826;2.324;2024-03-23T06:15:17;101064.03;;;8.54;65.05
86706;BME280;77456;48.826;2.324;2024-03-23T06:17:43;101071.84;;;8.54;65.30
86706;BME280;77456;48.826;2.324;2024-03-23T06:20:09;101075.28;;;8.54;65.16
86706;BME280;77456;48.826;2.324;2024-03-23T06:22:35;101086.44;;;8.58;64.96
86706;BME280;77456;48.826;2.324;2024-03-23T06:25:01;101087.41;;;8.54;65.25
86706;BME280;77456;48.826;2.324;2024-03-23T06:27:26;101100.25;;;8.60;65.26
86706;BME280;77456;48.826;2.324;2024-03-23T06:29:52;101098.56;;;8.59;64.94
86706;BME280;77456;48.826;2.324;2024-03-23T06:32:17;101099.41;;;8.58;64.98
86706;BME280;77456;48.826;2.324;2024-03-23T06:34:43;101102.91;;;8.58;65.33
86706;BME280;77456;48.826;2.324;2024-03-23T06:37:10;101100.34;;;8.57;65.32
86706;BME280;77456;48.826;2.324;2024-03-23T06:39:36;101110.56;;;8.63;65.62
86706;BME280;77456;48.826;2.324;2024-03-23T06:42:05;101104.41;;;8.67;65.56
86706;BME280;77456;48.826;2.324;2024-03-23T06:44:31;101116.28;;;8.76;65.26
86706;BME280;77456;48.826;2.324;2024-03-23T06:46:57;101116.34;;;8.74;65.49
86706;BME280;77456;48.826;2.324;2024-03-23T06:49:23;101123.91;;;8.82;65.23
86706;BME280;77456;48.826;2.324;2024-03-23T06:51:49;101116.00;;;8.87;65.45
86706;BME280;77456;48.826;2.324;2024-03-23T06:54:14;101118.59;;;8.88;65.19
86706;BME280;77456;48.826;2.324;2024-03-23T06:56:40;101120.16;;;8.94;65.25
86706;BME280;77456;48.826;2.324;2024-03-23T06:59:06;101113.97;;;8.98;65.12
86706;BME280;77456;48.826;2.324;2024-03-23T07:01:32;101113.91;;;9.01;65.05
86706;BME280;77456;48.826;2.324;2024-03-23T07:03:57;101126.69;;;9.09;65.10
86706;BME280;77456;48.826;2.324;2024-03-23T07:06:22;101128.44;;;9.08;64.80
86706;BME280;77456;48.826;2.324;2024-03-23T07:08:48;101132.75;;;9.09;65.06
86706;BME280;77456;48.826;2.324;2024-03-23T07:11:20;101150.97;;;9.09;65.31
86706;BME280;77456;48.826;2.324;2024-03-23T07:13:46;101165.75;;;9.07;65.04
86706;BME280;77456;48.826;2.324;2024-03-23T07:16:11;101159.84;;;9.00;64.56
86706;BME280;77456;48.826;2.324;2024-03-23T07:18:38;101150.72;;;8.86;64.43
86706;BME280;77456;48.826;2.324;2024-03-23T07:21:03;101153.69;;;8.70;64.62
86706;BME280;77456;48.826;2.324;2024-03-23T07:23:31;101149.69;;;8.57;64.40
86706;BME280;77456;48.826;2.324;2024-03-23T07:28:22;101141.72;;;8.27;65.12
86706;BME280;77456;48.826;2.324;2024-03-23T07:30:47;101135.03;;;8.17;65.35
86706;BME280;77456;48.826;2.324;2024-03-23T07:33:13;101134.28;;;8.12;65.65
86706;BME280;77456;48.826;2.324;2024-03-23T07:35:38;101133.53;;;8.08;65.62
86706;BME280;77456;48.826;2.324;2024-03-23T07:38:03;101126.66;;;8.06;66.03
86706;BME280;77456;48.826;2.324;2024-03-23T07:40:30;101128.25;;;8.11;66.30
86706;BME280;77456;48.826;2.324;2024-03-23T07:42:56;101129.84;;;8.17;66.71
86706;BME280;77456;48.826;2.324;2024-03-23T07:45:21;101127.16;;;8.20;67.16
86706;BME280;77456;48.826;2.324;2024-03-23T07:47:46;101131.25;;;8.30;67.37
86706;BME280;77456;48.826;2.324;2024-03-23T07:50:12;101124.13;;;8.38;67.63
86706;BME280;77456;48.826;2.324;2024-03-23T07:52:37;101131.00;;;8.43;67.50
86706;BME280;77456;48.826;2.324;2024-03-23T07:55:03;101110.78;;;8.55;67.29
86706;BME280;77456;48.826;2.324;2024-03-23T07:57:28;101109.78;;;8.61;67.40
86706;BME280;77456;48.826;2.324;2024-03-23T07:59:53;101121.78;;;8.65;67.35
86706;BME280;77456;48.826;2.324;2024-03-23T08:02:18;101126.75;;;8.74;67.32
86706;BME280;77456;48.826;2.324;2024-03-23T08:04:44;101124.81;;;8.81;66.80
86706;BME280;77456;48.826;2.324;2024-03-23T08:07:09;101125.75;;;8.80;66.41
86706;BME280;77456;48.826;2.324;2024-03-23T08:09:34;101112.75;;;8.80;65.91
86706;BME280;77456;48.826;2.324;2024-03-23T08:12:00;101120.56;;;8.78;65.70
86706;BME280;77456;48.826;2.324;2024-03-23T08:14:25;101130.03;;;8.81;65.40
86706;BME280;77456;48.826;2.324;2024-03-23T08:16:50;101128.44;;;8.75;65.64
86706;BME280;77456;48.826;2.324;2024-03-23T08:19:16;101125.81;;;8.77;65.86
86706;BME280;77456;48.826;2.324;2024-03-23T08:21:41;101126.59;;;8.80;64.93
86706;BME280;77456;48.826;2.324;2024-03-23T08:24:07;101140.44;;;8.81;64.60
86706;BME280;77456;48.826;2.324;2024-03-23T08:26:33;101137.81;;;8.82;64.36
86706;BME280;77456;48.826;2.324;2024-03-23T08:28:58;101141.25;;;8.83;64.15
86706;BME280;77456;48.826;2.324;2024-03-23T08:31:23;101140.31;;;8.86;64.36
86706;BME280;77456;48.826;2.324;2024-03-23T08:33:48;101153.25;;;8.87;64.52
86706;BME280;77456;48.826;2.324;2024-03-23T08:36:14;101130.56;;;8.94;64.77
86706;BME280;77456;48.826;2.324;2024-03-23T08:38:40;101142.44;;;9.04;64.75
86706;BME280;77456;48.826;2.324;2024-03-23T08:41:07;101141.31;;;9.13;64.57
86706;BME280;77456;48.826;2.324;2024-03-23T08:43:37;101137.69;;;9.18;64.60
86706;BME280;77456;48.826;2.324;2024-03-23T08:46:10;101132.28;;;9.26;64.18
86706;BME280;77456;48.826;2.324;2024-03-23T08:48:45;101128.63;;;9.33;63.77
86706;BME280;77456;48.826;2.324;2024-03-23T08:51:12;101131.97;;;9.37;63.44
86706;BME280;77456;48.826;2.324;2024-03-23T08:53:39;101136.16;;;9.42;63.07
86706;BME280;77456;48.826;2.324;2024-03-23T08:56:06;101124.84;;;9.43;63.14
86706;BME280;77456;48.826;2.324;2024-03-23T08:58:33;101128.13;;;9.50;63.27
86706;BME280;77456;48.826;2.324;2024-03-23T09:01:10;101140.13;;;9.54;62.81
86706;BME280;77456;48.826;2.324;2024-03-23T09:03:36;101127.94;;;9.56;62.47
86706;BME280;77456;48.826;2.324;2024-03-23T09:06:09;101138.25;;;9.59;62.36
86706;BME280;77456;48.826;2.324;2024-03-23T09:08:34;101140.72;;;9.64;62.45
86706;BME280;77456;48.826;2.324;2024-03-23T09:11:08;101124.16;;;9.68;62.40
86706;BME280;77456;48.826;2.324;2024-03-23T09:13:34;101130.91;;;9.74;62.25
86706;BME280;77456;48.826;2.324;2024-03-23T09:16:00;101130.53;;;9.86;62.19
86706;BME280;77456;48.826;2.324;2024-03-23T09:18:25;101146.63;;;9.99;62.30
86706;BME280;77456;48.826;2.324;2024-03-23T09:20:50;101126.47;;;10.05;61.12
86706;BME280;77456;48.826;2.324;2024-03-23T09:23:16;101128.03;;;10.11;60.74
86706;BME280;77456;48.826;2.324;2024-03-23T09:25:41;101130.53;;;10.14;60.74
86706;BME280;77456;48.826;2.324;2024-03-23T09:28:07;101137.31;;;10.20;60.78
86706;BME280;77456;48.826;2.324;2024-03-23T09:30:36;101123.16;;;10.28;60.39
86706;BME280;77456;48.826;2.324;2024-03-23T09:33:07;101122.09;;;10.34;60.41
86706;BME280;77456;48.826;2.324;2024-03-23T09:35:32;101117.22;;;10.50;60.73
86706;BME280;77456;48.826;2.324;2024-03-23T09:37:57;101119.19;;;10.70;60.56
86706;BME280;77456;48.826;2.324;2024-03-23T09:40:22;101118.63;;;10.85;60.55
86706;BME280;77456;48.826;2.324;2024-03-23T09:42:51;101126.97;;;10.96;60.50
86706;BME280;77456;48.826;2.324;2024-03-23T09:45:20;101132.09;;;10.98;59.71
86706;BME280;77456;48.826;2.324;2024-03-23T09:47:46;101122.69;;;10.94;59.16
86706;BME280;77456;48.826;2.324;2024-03-23T09:50:12;101117.41;;;10.95;59.53
86706;BME280;77456;48.826;2.324;2024-03-23T09:52:38;101117.16;;;11.03;59.82
86706;BME280;77456;48.826;2.324;2024-03-23T09:55:04;101103.19;;;11.27;60.03
86706;BME280;77456;48.826;2.324;2024-03-23T09:57:29;101107.34;;;11.57;60.05
86706;BME280;77456;48.826;2.324;2024-03-23T09:59:55;101101.16;;;11.81;59.10
86706;BME280;77456;48.826;2.324;2024-03-23T10:02:22;101100.03;;;12.10;58.81
86706;BME280;77456;48.826;2.324;2024-03-23T10:04:47;101099.00;;;12.36;57.97
86706;BME280;77456;48.826;2.324;2024-03-23T10:07:14;101095.59;;;12.55;57.35
86706;BME280;77456;48.826;2.324;2024-03-23T10:09:40;101094.75;;;12.75;56.52
86706;BME280;77456;48.826;2.324;2024-03-23T10:12:10;101092.06;;;12.97;56.18
86706;BME280;77456;48.826;2.324;2024-03-23T10:14:36;101093.44;;;13.24;55.93
86706;BME280;77456;48.826;2.324;2024-03-23T10:19:38;101091.06;;;13.77;54.96
86706;BME280;77456;48.826;2.324;2024-03-23T10:22:04;101080.00;;;13.89;53.81
86706;BME280;77456;48.826;2.324;2024-03-23T10:24:29;101090.91;;;13.99;54.13
86706;BME280;77456;48.826;2.324;2024-03-23T10:26:58;101086.19;;;14.05;53.54
86706;BME280;77456;48.826;2.324;2024-03-23T10:29:23;101089.59;;;14.07;52.65
86706;BME280;77456;48.826;2.324;2024-03-23T10:31:49;101073.88;;;14.07;51.99
86706;BME280;77456;48.826;2.324;2024-03-23T10:34:15;101079.72;;;14.12;51.73
86706;BME280;77456;48.826;2.324;2024-03-23T10:36:41;101069.88;;;14.18;51.20
86706;BME280;77456;48.826;2.324;2024-03-23T10:39:07;101074.81;;;14.24;51.14
86706;BME280;77456;48.826;2.324;2024-03-23T10:41:33;101060.47;;;14.31;50.33
86706;BME280;77456;48.826;2.324;2024-03-23T10:44:01;101065.84;;;14.45;50.08
86706;BME280;77456;48.826;2.324;2024-03-23T10:46:27;101046.13;;;14.55;50.89
86706;BME280;77456;48.826;2.324;2024-03-23T10:48:52;101045.97;;;14.76;49.97
86706;BME280;77456;48.826;2.324;2024-03-23T10:51:18;101042.66;;;14.88;49.06
86706;BME280;77456;48.826;2.324;2024-03-23T10:53:44;101032.38;;;15.01;49.20
86706;BME280;77456;48.826;2.324;2024-03-23T10:56:12;101030.53;;;15.03;48.17
86706;BME280;77456;48.826;2.324;2024-03-23T10:58:42;101025.19;;;15.05;48.03
86706;BME280;77456;48.826;2.324;2024-03-23T11:01:11;101020.63;;;15.08;47.03
86706;BME280;77456;48.826;2.324;2024-03-23T11:03:38;101011.47;;;15.15;45.89
86706;BME280;77456;48.826;2.324;2024-03-23T11:06:06;101027.66;;;15.08;45.11
86706;BME280;77456;48.826;2.324;2024-03-23T11:08:38;101016.19;;;14.93;45.75
86706;BME280;77456;48.826;2.324;2024-03-23T11:11:20;101016.56;;;14.69;45.28
86706;BME280;77456;48.826;2.324;2024-03-23T11:13:50;101004.16;;;14.55;45.53
86706;BME280;77456;48.826;2.324;2024-03-23T11:16:22;101014.78;;;14.35;44.32
86706;BME280;77456;48.826;2.324;2024-03-23T11:18:49;101000.16;;;14.13;45.43
86706;BME280;77456;48.826;2.324;2024-03-23T11:21:54;101002.47;;;13.85;45.17
86706;BME280;77456;48.826;2.324;2024-03-23T11:24:21;101009.13;;;13.56;45.55
86706;BME280;77456;48.826;2.324;2024-03-23T11:26:47;100999.38;;;13.40;45.70
86706;BME280;77456;48.826;2.324;2024-03-23T11:29:17;101000.88;;;13.25;46.45
86706;BME280;77456;48.826;2.324;2024-03-23T11:31:50;101013.22;;;13.05;46.16
86706;BME280;77456;48.826;2.324;2024-03-23T11:34:16;101002.66;;;12.87;46.78
86706;BME280;77456;48.826;2.324;2024-03-23T11:36:43;100986.59;;;12.76;47.29
86706;BME280;77456;48.826;2.324;2024-03-23T11:39:26;100983.66;;;13.40;46.99
86706;BME280;77456;48.826;2.324;2024-03-23T11:45:54;100981.97;;;14.10;43.79
86706;BME280;77456;48.826;2.324;2024-03-23T11:48:22;100985.97;;;14.00;41.85
86706;BME280;77456;48.826;2.324;2024-03-23T11:50:55;100966.72;;;14.01;42.96
86706;BME280;77456;48.826;2.324;2024-03-23T11:53:21;100966.97;;;14.30;42.76
86706;BME280;77456;48.826;2.324;2024-03-23T11:55:57;100947.44;;;15.18;42.53
86706;BME280;77456;48.826;2.324;2024-03-23T11:58:24;100948.59;;;16.20;41.11
86706;BME280;77456;48.826;2.324;2024-03-23T12:01:01;100948.44;;;17.22;39.89
86706;BME280;77456;48.826;2.324;2024-03-23T12:03:27;100935.94;;;18.05;38.83
86706;BME280;77456;48.826;2.324;2024-03-23T12:06:01;100913.97;;;19.06;37.16
86706;BME280;77456;48.826;2.324;2024-03-23T12:08:34;100923.91;;;19.02;35.69
86706;BME280;77456;48.826;2.324;2024-03-23T12:11:13;100912.00;;;18.34;35.99
86706;BME280;77456;48.826;2.324;2024-03-23T12:13:41;100942.22;;;17.50;35.44
86706;BME280;77456;48.826;2.324;2024-03-23T12:16:20;100928.22;;;16.52;35.42
86706;BME280;77456;48.826;2.324;2024-03-23T12:18:49;100928.34;;;15.92;36.75
86706;BME280;77456;48.826;2.324;2024-03-23T12:21:17;100930.25;;;16.04;36.98
86706;BME280;77456;48.826;2.324;2024-03-23T12:23:43;100933.47;;;16.38;36.84
86706;BME280;77456;48.826;2.324;2024-03-23T12:26:14;100937.03;;;16.94;36.63
86706;BME280;77456;48.826;2.324;2024-03-23T12:28:39;100921.50;;;17.31;36.84
86706;BME280;77456;48.826;2.324;2024-03-23T12:31:05;100930.22;;;17.86;37.04
86706;BME280;77456;48.826;2.324;2024-03-23T12:33:31;100921.47;;;18.49;36.72
86706;BME280;77456;48.826;2.324;2024-03-23T12:35:57;100914.19;;;19.03;35.62
86706;BME280;77456;48.826;2.324;2024-03-23T12:38:23;100906.50;;;19.48;35.98
86706;BME280;77456;48.826;2.324;2024-03-23T12:40:49;100901.63;;;20.01;35.12
86706;BME280;77456;48.826;2.324;2024-03-23T12:43:16;100909.22;;;20.28;33.93
86706;BME280;77456;48.826;2.324;2024-03-23T12:45:48;100900.44;;;20.05;33.60
86706;BME280;77456;48.826;2.324;2024-03-23T12:48:16;100903.09;;;19.70;33.90
86706;BME280;77456;48.826;2.324;2024-03-23T12:50:42;100894.63;;;19.29;34.74
86706;BME280;77456;48.826;2.324;2024-03-23T12:53:08;100888.47;;;19.53;34.55
86706;BME280;77456;48.826;2.324;2024-03-23T12:55:35;100881.59;;;19.74;34.22
86706;BME280;77456;48.826;2.324;2024-03-23T12:58:04;100868.63;;;19.71;33.85
86706;BME280;77456;48.826;2.324;2024-03-23T13:00:30;100865.41;;;19.44;33.80
86706;BME280;77456;48.826;2.324;2024-03-23T13:02:56;100855.22;;;18.78;33.53
86706;BME280;77456;48.826;2.324;2024-03-23T13:05:21;100837.28;;;18.21;33.91
86706;BME280;77456;48.826;2.324;2024-03-23T13:07:49;100848.16;;;17.78;33.66
86706;BME280;77456;48.826;2.324;2024-03-23T13:10:17;100846.25;;;17.27;32.36
86706;BME280;77456;48.826;2.324;2024-03-23T13:12:45;100845.19;;;16.75;33.19
86706;BME280;77456;48.826;2.324;2024-03-23T13:15:12;100848.84;;;16.31;34.03
86706;BME280;77456;48.826;2.324;2024-03-23T13:17:38;100823.69;;;15.99;34.50
86706;BME280;77456;48.826;2.324;2024-03-23T13:20:06;100826.94;;;15.74;34.39
86706;BME280;77456;48.826;2.324;2024-03-23T13:22:36;100840.28;;;15.55;35.37
86706;BME280;77456;48.826;2.324;2024-03-23T13:25:02;100843.50;;;15.30;35.42
86706;BME280;77456;48.826;2.324;2024-03-23T13:27:28;100846.53;;;15.08;36.15
86706;BME280;77456;48.826;2.324;2024-03-23T13:29:54;100873.44;;;14.80;38.24
86706;BME280;77456;48.826;2.324;2024-03-23T13:32:20;100868.84;;;14.51;40.19
86706;BME280;77456;48.826;2.324;2024-03-23T13:34:45;100872.56;;;14.14;41.82
86706;BME280;77456;48.826;2.324;2024-03-23T13:37:11;100878.78;;;13.78;43.19
86706;BME280;77456;48.826;2.324;2024-03-23T13:39:41;100883.75;;;13.31;44.18
86706;BME280;77456;48.826;2.324;2024-03-23T13:42:07;100895.25;;;12.90;46.08
86706;BME280;77456;48.826;2.324;2024-03-23T13:44:35;100904.22;;;12.47;48.19
86706;BME280;77456;48.826;2.324;2024-03-23T13:47:02;100913.81;;;12.07;48.26
86706;BME280;77456;48.826;2.324;2024-03-23T13:49:30;100913.78;;;11.66;49.05
86706;BME280;77456;48.826;2.324;2024-03-23T13:51:58;100934.50;;;11.26;50.64
86706;BME280;77456;48.826;2.324;2024-03-23T13:54:25;100918.50;;;10.90;54.12
86706;BME280;77456;48.826;2.324;2024-03-23T13:56:51;100913.53;;;10.60;55.34